Time;durP1;ratioP1;P1;durP2;ratioP2;P2;SDS_P1;SDS_P2;PMS_P1;PMS_P2;Temp;Humidity;BMP_temperature;BMP_pressure;BME280_temperature;BME280_humidity;BME280_pressure;Samples;Min_cycle;Max_cycle;Signal;HPM_P1;HPM_P2
2023/11/29 00:00:22;;;;;;;15.13;9.52;;;7.70;99.90;;;;;;7399621;19;20020;-73
2023/11/29 00:02:51;;;;;;;19.30;9.73;;;7.70;99.90;;;;;;7375804;19;20014;-74
2023/11/29 00:05:20;;;;;;;18.05;9.00;;;7.70;99.90;;;;;;7377993;19;20006;-74
2023/11/29 00:07:49;;;;;;;18.90;10.07;;;7.70;99.90;;;;;;7378025;19;20383;-74
2023/11/29 00:10:22;;;;;;;17.45;9.30;;;7.70;99.90;;;;;;7377791;19;20299;-74
2023/11/29 00:12:53;;;;;;;25.90;9.82;;;7.70;99.90;;;;;;7395189;19;20007;-74
2023/11/29 00:15:23;;;;;;;17.13;9.40;;;7.70;99.90;;;;;;7405076;19;20014;-73
2023/11/29 00:17:54;;;;;;;20.60;10.15;;;7.70;99.90;;;;;;7383173;19;19999;-75
2023/11/29 00:20:23;;;;;;;26.63;11.90;;;7.60;99.90;;;;;;7384475;19;20019;-74
2023/11/29 00:22:51;;;;;;;28.83;10.45;;;7.60;99.90;;;;;;7383063;19;20110;-74
2023/11/29 00:25:20;;;;;;;19.45;9.50;;;7.50;99.90;;;;;;7378488;19;20276;-74
2023/11/29 00:27:49;;;;;;;27.35;9.60;;;7.50;99.90;;;;;;7399786;19;20011;-74
2023/11/29 00:30:23;;;;;;;19.30;9.20;;;7.40;99.90;;;;;;7376977;19;20287;-74
2023/11/29 00:32:51;;;;;;;19.60;8.82;;;7.40;99.90;;;;;;7376433;19;20284;-74
2023/11/29 00:35:20;;;;;;;23.85;8.45;;;7.40;99.90;;;;;;7376757;19;20010;-74
2023/11/29 00:37:49;;;;;;;16.88;8.60;;;7.40;99.90;;;;;;7377290;19;20032;-75
2023/11/29 00:40:18;;;;;;;15.23;8.82;;;7.40;99.90;;;;;;7377132;19;20389;-74
2023/11/29 00:42:49;;;;;;;22.20;7.63;;;7.40;99.90;;;;;;7397646;19;20066;-74
2023/11/29 00:45:21;;;;;;;11.93;7.47;;;7.40;99.90;;;;;;7376728;19;20391;-74
2023/11/29 00:47:49;;;;;;;14.70;8.27;;;7.40;99.90;;;;;;7375968;19;20007;-75
2023/11/29 00:50:18;;;;;;;14.15;7.28;;;7.40;99.90;;;;;;7376827;19;20007;-73
2023/11/29 00:52:47;;;;;;;15.52;7.78;;;7.30;99.90;;;;;;7376500;19;20299;-74
2023/11/29 00:55:18;;;;;;;21.73;8.15;;;7.30;99.90;;;;;;7377186;19;20023;-73
2023/11/29 00:57:47;;;;;;;14.95;7.50;;;7.30;99.90;;;;;;7405428;19;20018;-73
2023/11/29 01:00:16;;;;;;;14.15;7.85;;;7.30;99.90;;;;;;7383739;19;20231;-74
2023/11/29 01:02:48;;;;;;;16.38;6.72;;;7.30;99.90;;;;;;7381743;19;20003;-74
2023/11/29 01:05:16;;;;;;;14.35;7.35;;;7.40;99.90;;;;;;7383848;19;20075;-73
2023/11/29 01:07:45;;;;;;;14.30;7.30;;;7.30;99.90;;;;;;7383831;19;20002;-74
2023/11/29 01:10:14;;;;;;;13.88;6.20;;;7.40;99.90;;;;;;7383678;19;20010;-74
2023/11/29 01:12:44;;;;;;;29.92;7.30;;;7.30;99.90;;;;;;7404719;19;20492;-74
2023/11/29 01:15:13;;;;;;;22.38;7.18;;;7.30;99.90;;;;;;7383895;19;20033;-75
2023/11/29 01:20:56;;;;;;;16.98;6.30;;;7.20;99.90;;;;;;7381284;19;19995;-74
2023/11/29 01:23:25;;;;;;;14.88;7.05;;;7.20;99.90;;;;;;7382391;19;20007;-74
2023/11/29 01:25:53;;;;;;;14.23;6.53;;;7.10;99.90;;;;;;7383279;19;20022;-74
2023/11/29 01:28:22;;;;;;;11.25;6.30;;;7.20;99.90;;;;;;7384187;19;20468;-73
2023/11/29 01:30:51;;;;;;;14.35;6.40;;;7.20;99.90;;;;;;7397217;19;20014;-74
2023/11/29 01:33:19;;;;;;;13.63;6.88;;;7.30;99.90;;;;;;7404865;19;20017;-74
2023/11/29 01:35:48;;;;;;;14.65;6.05;;;7.30;99.90;;;;;;7382024;19;20002;-74
2023/11/29 01:38:19;;;;;;;18.17;6.90;;;7.30;99.90;;;;;;7382702;19;20002;-75
2023/11/29 01:40:48;;;;;;;20.13;7.05;;;7.30;99.90;;;;;;7382651;19;20007;-74
2023/11/29 01:43:17;;;;;;;12.90;7.13;;;7.40;99.90;;;;;;7381602;19;20010;-74
2023/11/29 01:45:46;;;;;;;16.45;7.38;;;7.40;99.90;;;;;;7403922;19;20398;-74
2023/11/29 01:48:15;;;;;;;14.75;7.60;;;7.40;99.90;;;;;;7381439;19;20255;-74
2023/11/29 01:50:46;;;;;;;16.52;7.22;;;7.50;99.90;;;;;;7381037;19;20394;-74
2023/11/29 01:53:14;;;;;;;16.33;7.68;;;7.50;99.90;;;;;;7381091;19;20013;-75
2023/11/29 01:55:52;;;;;;;18.52;8.07;;;7.60;99.90;;;;;;7382058;19;20074;-74
2023/11/29 01:58:22;;;;;;;20.08;8.02;;;7.60;99.90;;;;;;7382217;19;20109;-74
2023/11/29 02:00:51;;;;;;;13.73;7.28;;;7.70;99.90;;;;;;7399342;19;20014;-74
2023/11/29 02:03:21;;;;;;;15.00;7.40;;;7.70;99.90;;;;;;7401769;19;20163;-73
2023/11/29 02:05:50;;;;;;;18.58;7.75;;;7.70;99.90;;;;;;7381204;19;20006;-73
2023/11/29 02:08:20;;;;;;;13.75;7.65;;;7.70;99.90;;;;;;7381090;19;20010;-74
2023/11/29 02:10:52;;;;;;;18.02;8.40;;;7.70;99.90;;;;;;7382214;19;20019;-74
2023/11/29 02:13:21;;;;;;;15.38;7.88;;;7.70;99.90;;;;;;7381856;19;20028;-74
2023/11/29 02:15:49;;;;;;;14.45;7.82;;;7.70;99.90;;;;;;7402660;19;20059;-74
2023/11/29 02:18:18;;;;;;;15.75;8.27;;;7.70;99.90;;;;;;7381098;19;20019;-74
2023/11/29 02:20:47;;;;;;;18.17;7.90;;;7.70;99.90;;;;;;7380813;19;20007;-74
2023/11/29 02:23:22;;;;;;;16.58;7.20;;;7.80;99.90;;;;;;7381204;19;20011;-74
2023/11/29 02:25:55;;;;;;;13.85;7.32;;;7.80;99.90;;;;;;7381427;19;20023;-74
2023/11/29 02:28:24;;;;;;;14.10;7.47;;;7.80;99.90;;;;;;7381228;19;20009;-74
2023/11/29 02:30:53;;;;;;;24.98;7.40;;;7.80;99.90;;;;;;7378703;19;20074;-74
2023/11/29 02:33:21;;;;;;;17.35;8.02;;;7.80;99.90;;;;;;7402972;19;20019;-74
2023/11/29 02:35:50;;;;;;;18.27;8.52;;;7.90;99.90;;;;;;7385234;19;20015;-74
2023/11/29 02:38:19;;;;;;;15.82;8.10;;;7.90;99.90;;;;;;7386204;19;20048;-74
2023/11/29 02:40:47;;;;;;;20.17;9.98;;;7.90;99.90;;;;;;7385380;19;20088;-74
2023/11/29 02:43:19;;;;;;;17.83;9.38;;;8.00;99.90;;;;;;7384429;19;20361;-74
2023/11/29 02:45:45;;;;;;;14.75;8.88;;;7.90;99.90;;;;;;7406819;19;20154;-74
2023/11/29 02:48:14;;;;;;;27.35;10.40;;;8.00;99.90;;;;;;7380250;19;20011;-75
2023/11/29 02:50:43;;;;;;;18.48;9.23;;;8.00;99.90;;;;;;7379458;19;20022;-74
2023/11/29 02:53:11;;;;;;;18.30;8.65;;;8.00;99.90;;;;;;7380512;19;20003;-74
2023/11/29 02:55:40;;;;;;;18.48;8.77;;;8.00;99.90;;;;;;7380564;19;20011;-74
2023/11/29 02:58:09;;;;;;;20.45;9.48;;;8.00;99.90;;;;;;7380601;19;20006;-73
2023/11/29 03:00:40;;;;;;;19.92;9.13;;;8.00;99.90;;;;;;7401952;19;20260;-74
2023/11/29 03:03:09;;;;;;;18.83;8.98;;;7.90;99.90;;;;;;7379494;19;20528;-75
2023/11/29 03:05:38;;;;;;;18.73;9.93;;;7.90;99.90;;;;;;7379709;19;20007;-74
2023/11/29 03:08:07;;;;;;;15.93;8.38;;;7.90;99.90;;;;;;7382377;19;20118;-74
2023/11/29 03:10:36;;;;;;;18.38;8.23;;;7.90;99.90;;;;;;7380330;19;20003;-74
2023/11/29 03:13:05;;;;;;;17.30;8.77;;;7.80;99.90;;;;;;7379718;19;20006;-74
2023/11/29 03:15:33;;;;;;;13.63;8.15;;;7.80;99.90;;;;;;7400738;19;20405;-73
2023/11/29 03:18:05;;;;;;;13.00;6.93;;;7.90;99.90;;;;;;7378255;19;20058;-74
2023/11/29 03:20:33;;;;;;;;;;;7.90;99.90;;;;;;7378853;19;20145;-74
2023/11/29 03:23:02;;;;;;;18.10;9.02;;;7.90;99.90;;;;;;7378359;19;20024;-74
2023/11/29 03:25:30;;;;;;;15.43;7.70;;;7.90;99.90;;;;;;7379480;19;20065;-73
2023/11/29 03:27:59;;;;;;;20.08;8.02;;;7.90;99.90;;;;;;7378637;19;20097;-73
2023/11/29 03:30:30;;;;;;;15.02;8.18;;;7.90;99.90;;;;;;7400429;19;19999;-74
2023/11/29 03:32:59;;;;;;;14.88;7.78;;;7.90;99.90;;;;;;7378684;19;20086;-74
2023/11/29 03:35:32;;;;;;;17.50;8.63;;;7.90;99.90;;;;;;7378857;19;20023;-74
2023/11/29 03:38:00;;;;;;;20.30;8.55;;;7.90;99.90;;;;;;7378986;19;20015;-74
2023/11/29 03:40:29;;;;;;;16.60;8.30;;;7.90;99.90;;;;;;7379157;19;20015;-74
2023/11/29 03:42:58;;;;;;;20.20;8.40;;;7.90;99.90;;;;;;7378956;19;20077;-74
2023/11/29 03:45:26;;;;;;;15.20;8.25;;;7.90;99.90;;;;;;7399767;19;20010;-74
2023/11/29 03:47:55;;;;;;;14.23;7.55;;;7.90;99.90;;;;;;7377984;19;20010;-74
2023/11/29 03:50:24;;;;;;;16.48;8.18;;;7.90;99.90;;;;;;7377775;19;20039;-74
2023/11/29 03:52:55;;;;;;;22.45;8.90;;;7.90;99.90;;;;;;7378888;19;20019;-74
2023/11/29 03:55:23;;;;;;;15.75;8.98;;;7.90;99.90;;;;;;7378723;19;20092;-74
2023/11/29 03:57:52;;;;;;;36.75;9.30;;;7.90;99.90;;;;;;7377653;19;20067;-74
2023/11/29 04:00:21;;;;;;;22.58;9.23;;;7.90;99.90;;;;;;7399421;19;20015;-74
2023/11/29 04:02:50;;;;;;;20.65;8.95;;;7.90;99.90;;;;;;7376972;19;20275;-73
2023/11/29 04:05:18;;;;;;;22.38;9.27;;;8.00;99.90;;;;;;7378553;19;20112;-74
2023/11/29 04:07:47;;;;;;;21.25;10.20;;;7.90;99.90;;;;;;7377184;19;20010;-73
2023/11/29 04:10:18;;;;;;;16.27;8.65;;;7.90;99.90;;;;;;7378446;19;20010;-74
2023/11/29 04:12:47;;;;;;;;;;;7.90;99.90;;;;;;7400418;19;20015;-73
2023/11/29 04:15:16;;;;;;;17.05;7.80;;;7.90;99.90;;;;;;7377584;19;19932;-73
2023/11/29 04:17:44;;;;;;;18.90;8.85;;;7.80;99.90;;;;;;7377091;19;20032;-74
2023/11/29 04:20:13;;;;;;;26.10;10.25;;;7.80;99.90;;;;;;7377816;19;19999;-74
2023/11/29 04:22:43;;;;;;;18.80;9.65;;;7.80;99.90;;;;;;7377390;19;20071;-74
2023/11/29 04:25:11;;;;;;;14.60;9.95;;;7.90;99.90;;;;;;7377871;19;20064;-74
2023/11/29 04:27:43;;;;;;;17.45;9.20;;;7.90;99.90;;;;;;7399279;19;20007;-74
2023/11/29 04:30:12;;;;;;;15.32;8.23;;;8.00;99.90;;;;;;7379011;19;20019;-73
2023/11/29 04:32:41;;;;;;;16.38;8.63;;;8.00;99.90;;;;;;7387287;19;20060;-73
2023/11/29 04:35:10;;;;;;;23.42;10.40;;;8.00;99.90;;;;;;7384758;19;20007;-73
2023/11/29 04:37:39;;;;;;;19.60;9.13;;;8.00;99.90;;;;;;7384274;19;19999;-74
2023/11/29 04:40:10;;;;;;;17.80;8.85;;;7.90;99.90;;;;;;7384416;19;20067;-75
2023/11/29 04:42:38;;;;;;;21.15;8.85;;;7.90;99.90;;;;;;7405690;19;20002;-73
2023/11/29 04:45:11;;;;;;;25.35;9.35;;;7.90;99.90;;;;;;7383815;19;20003;-74
2023/11/29 04:47:40;;;;;;;13.82;8.55;;;7.90;99.90;;;;;;7384144;19;20013;-75
2023/11/29 04:50:10;;;;;;;19.65;9.98;;;7.90;99.90;;;;;;7384818;19;20073;-73
2023/11/29 04:52:39;;;;;;;19.00;10.05;;;8.00;99.90;;;;;;7382863;19;20070;-74
2023/11/29 04:55:08;;;;;;;18.98;9.38;;;8.00;99.90;;;;;;7384925;19;20006;-74
2023/11/29 04:57:37;;;;;;;18.90;9.48;;;8.00;99.90;;;;;;7409255;19;19999;-74
2023/11/29 05:00:09;;;;;;;15.75;8.60;;;8.00;99.90;;;;;;7389064;19;20016;-74
2023/11/29 05:02:38;;;;;;;24.02;8.68;;;8.00;99.90;;;;;;7388787;19;20014;-75
2023/11/29 05:05:10;;;;;;;22.13;9.60;;;8.10;99.90;;;;;;7390211;19;19999;-74
2023/11/29 05:07:39;;;;;;;18.73;9.85;;;8.10;99.90;;;;;;7388523;19;20010;-74
2023/11/29 05:10:10;;;;;;;24.17;9.23;;;8.10;99.90;;;;;;7385620;19;20028;-74
2023/11/29 05:12:41;;;;;;;21.60;9.88;;;8.10;99.90;;;;;;7405633;19;20014;-76
2023/11/29 05:15:13;;;;;;;20.30;10.52;;;8.10;99.90;;;;;;7383507;19;20357;-74
2023/11/29 05:17:42;;;;;;;33.42;10.70;;;8.10;99.90;;;;;;7383367;19;20053;-75
2023/11/29 05:20:13;;;;;;;16.85;8.95;;;8.10;99.90;;;;;;7383473;19;20032;-74
2023/11/29 05:22:41;;;;;;;15.65;8.70;;;8.10;99.90;;;;;;7383493;19;20023;-76
2023/11/29 05:25:12;;;;;;;17.58;8.75;;;8.10;99.90;;;;;;7383377;19;20118;-74
2023/11/29 05:27:42;;;;;;;32.27;8.70;;;8.10;99.90;;;;;;7404619;19;20058;-75
2023/11/29 05:30:14;;;;;;;16.57;7.83;;;8.10;99.90;;;;;;7382595;19;20015;-73
2023/11/29 05:32:46;;;;;;;15.32;8.65;;;8.10;99.90;;;;;;7382339;19;20011;-74
2023/11/29 05:35:15;;;;;;;17.13;9.57;;;8.10;99.90;;;;;;7382464;19;20260;-72
2023/11/29 05:37:44;;;;;;;19.13;10.02;;;8.10;99.90;;;;;;7381353;19;20019;-74
2023/11/29 05:40:13;;;;;;;24.10;10.05;;;8.10;99.90;;;;;;7382700;19;20022;-75
2023/11/29 05:42:41;;;;;;;25.13;10.55;;;8.00;99.90;;;;;;7402779;19;20007;-74
2023/11/29 05:45:13;;;;;;;20.42;10.88;;;8.00;99.90;;;;;;7381547;19;20066;-73
2023/11/29 05:47:43;;;;;;;14.57;8.38;;;8.00;99.90;;;;;;7381820;19;20082;-73
2023/11/29 05:50:13;;;;;;;15.73;8.68;;;8.00;99.90;;;;;;7382528;19;20007;-73
2023/11/29 05:52:42;;;;;;;17.63;9.57;;;8.00;99.90;;;;;;7381069;19;20010;-73
2023/11/29 05:55:11;;;;;;;19.83;9.55;;;7.90;99.90;;;;;;7382606;19;20016;-73
2023/11/29 05:57:44;;;;;;;15.75;8.98;;;7.90;99.90;;;;;;7406576;19;20007;-73
2023/11/29 06:00:18;;;;;;;20.90;9.55;;;7.90;99.90;;;;;;7381517;19;20070;-73
2023/11/29 06:02:47;;;;;;;21.98;9.90;;;7.90;99.90;;;;;;7381338;19;20346;-73
2023/11/29 06:05:16;;;;;;;21.00;9.98;;;7.90;99.90;;;;;;7380686;19;19999;-73
2023/11/29 06:07:46;;;;;;;26.58;10.40;;;7.90;99.90;;;;;;7381803;19;20059;-74
2023/11/29 06:10:15;;;;;;;21.53;10.70;;;7.90;99.90;;;;;;7381430;19;20014;-73
2023/11/29 06:12:44;;;;;;;21.65;9.30;;;7.90;99.90;;;;;;7403251;19;20102;-73
2023/11/29 06:15:16;;;;;;;14.95;8.75;;;7.90;99.90;;;;;;7380736;19;20011;-73
2023/11/29 06:17:47;;;;;;;25.45;9.73;;;8.00;99.90;;;;;;7380899;19;20070;-73
2023/11/29 06:20:18;;;;;;;17.27;9.23;;;8.00;99.90;;;;;;7380967;19;20215;-73
2023/11/29 06:22:47;;;;;;;26.52;11.73;;;8.00;99.90;;;;;;7380734;19;20263;-73
2023/11/29 06:25:16;;;;;;;25.85;10.15;;;8.00;99.90;;;;;;7379528;19;20003;-72
2023/11/29 06:27:45;;;;;;;15.77;8.63;;;8.00;99.90;;;;;;7402576;19;20014;-73
2023/11/29 06:30:17;;;;;;;18.42;9.20;;;8.00;99.90;;;;;;7380106;19;20015;-74
2023/11/29 06:32:46;;;;;;;19.10;9.73;;;8.00;99.90;;;;;;7380437;19;20007;-73
2023/11/29 06:35:16;;;;;;;16.95;9.63;;;8.00;99.90;;;;;;7380768;19;20019;-73
2023/11/29 06:37:47;;;;;;;18.88;9.85;;;8.00;99.90;;;;;;7380915;19;19999;-73
2023/11/29 06:40:16;;;;;;;18.55;8.85;;;8.00;99.90;;;;;;7381426;19;20068;-74
2023/11/29 06:42:47;;;;;;;20.00;8.50;;;8.00;99.90;;;;;;7402054;19;20003;-73
2023/11/29 06:45:19;;;;;;;21.27;8.85;;;8.10;99.90;;;;;;7378262;19;20349;-73
2023/11/29 06:47:48;;;;;;;17.27;7.80;;;8.10;99.90;;;;;;7379622;19;20403;-73
2023/11/29 06:50:17;;;;;;;23.63;8.95;;;8.10;99.90;;;;;;7379334;19;20010;-73
2023/11/29 06:52:46;;;;;;;14.25;8.70;;;8.10;99.90;;;;;;7381150;19;20430;-73
2023/11/29 06:55:14;;;;;;;26.98;10.52;;;8.10;99.90;;;;;;7380162;19;20289;-73
2023/11/29 06:57:43;;;;;;;24.40;9.98;;;8.10;99.90;;;;;;7402097;19;20020;-73
2023/11/29 07:00:16;;;;;;;32.85;10.38;;;8.00;99.90;;;;;;7379235;19;20003;-74
2023/11/29 07:02:49;;;;;;;16.67;8.88;;;8.10;99.90;;;;;;7379591;19;20221;-73
2023/11/29 07:05:18;;;;;;;13.63;7.32;;;8.00;99.90;;;;;;7379860;19;20049;-73
2023/11/29 07:07:48;;;;;;;16.67;7.38;;;8.00;99.90;;;;;;7379956;19;20024;-73
2023/11/29 07:10:18;;;;;;;20.17;7.75;;;8.00;99.90;;;;;;7379242;19;20021;-73
2023/11/29 07:12:47;;;;;;;17.85;8.07;;;8.00;99.90;;;;;;7399851;19;20009;-73
2023/11/29 07:15:15;;;;;;;13.38;7.18;;;8.00;99.90;;;;;;7378854;19;20358;-73
2023/11/29 07:17:47;;;;;;;21.00;8.45;;;7.90;99.90;;;;;;7378594;19;20398;-74
2023/11/29 07:20:15;;;;;;;19.63;8.98;;;7.90;99.90;;;;;;7379081;19;20007;-73
2023/11/29 07:22:46;;;;;;;26.58;10.10;;;7.90;99.90;;;;;;7383734;19;20027;-73
2023/11/29 07:25:17;;;;;;;21.20;9.55;;;7.90;99.90;;;;;;7384025;19;20078;-74
2023/11/29 07:27:45;;;;;;;32.72;10.35;;;7.90;99.90;;;;;;7406807;19;20013;-73
2023/11/29 07:30:14;;;;;;;22.45;9.43;;;7.80;99.90;;;;;;7383163;19;20016;-73
2023/11/29 07:32:47;;;;;;;15.20;9.25;;;7.80;99.90;;;;;;7379030;19;20011;-74
2023/11/29 07:35:16;;;;;;;33.85;9.10;;;7.80;99.90;;;;;;7378308;19;20007;-72
2023/11/29 07:37:45;;;;;;;15.30;8.48;;;7.80;99.90;;;;;;7380793;19;20024;-74
2023/11/29 07:40:16;;;;;;;13.88;8.25;;;7.70;99.90;;;;;;7378418;19;20737;-73
2023/11/29 07:42:45;;;;;;;;;;;7.70;99.90;;;;;;7399913;19;20226;-73
2023/11/29 07:45:14;;;;;;;15.57;7.90;;;7.70;99.90;;;;;;7376190;19;20152;-73
2023/11/29 07:47:44;;;;;;;17.85;9.13;;;7.70;99.90;;;;;;7377599;19;20024;-73
2023/11/29 07:50:15;;;;;;;15.95;8.95;;;7.60;99.90;;;;;;7378705;19;20010;-73
2023/11/29 07:52:44;;;;;;;;;;;7.60;99.90;;;;;;7378296;19;20002;-74
2023/11/29 07:55:13;;;;;;;22.30;9.10;;;7.60;99.90;;;;;;7377721;19;19979;-73
2023/11/29 07:57:42;;;;;;;14.80;7.43;;;7.60;99.90;;;;;;7399094;19;20027;-74
2023/11/29 08:00:12;;;;;;;13.80;7.68;;;7.60;99.90;;;;;;7376959;19;20019;-73
2023/11/29 08:02:42;;;;;;;12.48;7.05;;;7.60;99.90;;;;;;7377406;19;20300;-73
2023/11/29 08:05:11;;;;;;;19.73;8.60;;;7.70;99.90;;;;;;7375901;19;20298;-73
2023/11/29 08:07:43;;;;;;;19.15;9.18;;;7.70;99.90;;;;;;7377404;19;20007;-73
2023/11/29 08:10:12;;;;;;;23.83;8.30;;;7.70;99.90;;;;;;7377888;19;20274;-73
2023/11/29 08:12:41;;;;;;;20.13;9.48;;;7.70;99.90;;;;;;7398995;19;20026;-73
2023/11/29 08:15:10;;;;;;;24.10;10.40;;;7.70;99.90;;;;;;7376735;19;20073;-73
2023/11/29 08:17:39;;;;;;;31.10;10.60;;;7.80;99.90;;;;;;7376586;19;20002;-75
2023/11/29 08:20:09;;;;;;;30.13;11.63;;;7.80;99.90;;;;;;7377651;19;20060;-73
2023/11/29 08:22:38;;;;;;;22.25;9.02;;;7.80;99.90;;;;;;7377068;19;20009;-73
2023/11/29 08:25:10;;;;;;;15.00;8.20;;;7.80;99.90;;;;;;7375975;19;20011;-73
2023/11/29 08:27:39;;;;;;;15.07;9.23;;;7.80;99.90;;;;;;7398292;19;20357;-73
2023/11/29 08:30:09;;;;;;;16.17;8.68;;;7.90;99.90;;;;;;7376296;19;20074;-73
2023/11/29 08:32:40;;;;;;;22.48;8.73;;;7.90;99.90;;;;;;7376524;19;20023;-74
2023/11/29 08:35:09;;;;;;;24.40;9.38;;;7.90;99.90;;;;;;7377017;19;20002;-73
2023/11/29 08:37:38;;;;;;;22.80;10.45;;;8.00;99.90;;;;;;7376863;19;20020;-73
2023/11/29 08:40:10;;;;;;;24.70;10.07;;;8.00;99.90;;;;;;7376285;19;20011;-74
2023/11/29 08:42:39;;;;;;;30.48;10.75;;;7.90;99.90;;;;;;7399328;19;20009;-73
2023/11/29 08:45:10;;;;;;;18.92;10.68;;;8.00;99.90;;;;;;7375786;19;20066;-73
2023/11/29 08:47:40;;;;;;;19.87;11.80;;;8.00;99.90;;;;;;7376049;19;20309;-73
2023/11/29 08:50:09;;;;;;;29.42;12.60;;;8.00;99.90;;;;;;7376810;19;20011;-74
2023/11/29 08:52:39;;;;;;;17.95;11.07;;;8.00;99.90;;;;;;7374645;19;20085;-75
2023/11/29 08:55:11;;;;;;;25.52;12.35;;;8.10;99.90;;;;;;7376552;19;20017;-73
2023/11/29 08:57:39;;;;;;;;;;;8.10;99.90;;;;;;7398241;19;20006;-73
2023/11/29 09:00:09;;;;;;;25.50;11.70;;;8.10;99.90;;;;;;7375237;19;20267;-73
2023/11/29 09:02:38;;;;;;;21.42;12.18;;;8.10;99.90;;;;;;7375631;19;20268;-73
2023/11/29 09:05:08;;;;;;;22.38;11.70;;;8.20;99.90;;;;;;7374691;19;20401;-74
2023/11/29 09:07:37;;;;;;;30.88;13.80;;;8.20;99.90;;;;;;7375633;19;20458;-73
2023/11/29 09:10:07;;;;;;;23.38;12.18;;;8.30;99.90;;;;;;7376294;19;20007;-73
2023/11/29 09:12:38;;;;;;;22.67;13.30;;;8.30;99.90;;;;;;7397010;19;20361;-73
2023/11/29 09:15:10;;;;;;;30.42;12.27;;;8.40;99.90;;;;;;7375022;19;20235;-73
2023/11/29 09:17:44;;;;;;;24.02;10.75;;;8.50;99.90;;;;;;7379077;19;20127;-73
2023/11/29 09:20:13;;;;;;;23.00;10.75;;;8.50;99.90;;;;;;7382733;19;20238;-75
2023/11/29 09:22:42;;;;;;;26.83;11.93;;;8.60;99.90;;;;;;7382863;19;20010;-72
2023/11/29 09:25:11;;;;;;;24.63;12.45;;;8.60;99.90;;;;;;7381999;19;20023;-74
2023/11/29 09:27:42;;;;;;;23.10;10.85;;;8.70;99.90;;;;;;7404421;19;20003;-74
2023/11/29 09:30:13;;;;;;;28.30;11.07;;;8.70;99.90;;;;;;7381985;19;20023;-75
2023/11/29 09:32:41;;;;;;;20.83;11.20;;;8.80;99.90;;;;;;7381412;19;20006;-74
2023/11/29 09:35:10;;;;;;;27.70;11.77;;;8.80;99.90;;;;;;7382609;19;20002;-73
2023/11/29 09:37:39;;;;;;;25.23;11.90;;;8.90;99.90;;;;;;7382172;19;20006;-74
2023/11/29 09:40:09;;;;;;;21.38;11.68;;;8.90;99.90;;;;;;7382483;19;20079;-74
2023/11/29 09:42:39;;;;;;;22.42;10.90;;;8.90;99.90;;;;;;7419310;19;20010;-73
2023/11/29 09:45:20;;;;;;;23.45;10.73;;;9.00;99.90;;;;;;7393392;19;20009;-73
2023/11/29 09:47:49;;;;;;;16.02;9.25;;;9.10;99.90;;;;;;7392725;19;20366;-73
2023/11/29 09:50:19;;;;;;;22.42;10.43;;;9.10;99.90;;;;;;7391235;19;20011;-73
2023/11/29 09:52:49;;;;;;;16.13;9.97;;;9.10;99.90;;;;;;7389571;19;20003;-73
2023/11/29 09:55:18;;;;;;;19.83;10.10;;;9.20;99.90;;;;;;7382552;19;20007;-73
2023/11/29 09:57:49;;;;;;;23.42;10.48;;;9.20;99.90;;;;;;7403041;19;20017;-73
2023/11/29 10:00:22;;;;;;;26.63;10.15;;;9.30;99.90;;;;;;7380417;19;20269;-73
2023/11/29 10:02:51;;;;;;;24.63;11.40;;;9.30;99.90;;;;;;7380582;19;20023;-73
2023/11/29 10:05:22;;;;;;;23.20;11.95;;;9.40;99.90;;;;;;7380231;19;20006;-73
2023/11/29 10:07:50;;;;;;;15.55;8.05;;;9.40;99.90;;;;;;7381571;19;20006;-73
2023/11/29 10:10:19;;;;;;;21.55;9.02;;;9.50;99.90;;;;;;7382165;19;20078;-74
2023/11/29 10:12:48;;;;;;;16.95;8.57;;;9.40;99.90;;;;;;7402568;19;20009;-73
2023/11/29 10:15:17;;;;;;;18.73;8.85;;;9.40;99.90;;;;;;7380459;19;20011;-74
2023/11/29 10:17:48;;;;;;;20.30;8.68;;;9.40;99.90;;;;;;7380560;19;19999;-73
2023/11/29 10:20:17;;;;;;;34.53;8.75;;;9.50;99.90;;;;;;7380723;19;20002;-73
2023/11/29 10:22:50;;;;;;;17.23;9.00;;;9.50;99.90;;;;;;7380913;19;20002;-72
2023/11/29 10:25:22;;;;;;;17.80;9.13;;;9.50;99.90;;;;;;7380582;19;20025;-73
2023/11/29 10:27:51;;;;;;;19.23;9.20;;;9.50;99.90;;;;;;7396489;19;20010;-73
2023/11/29 10:30:20;;;;;;;20.40;9.57;;;9.60;99.90;;;;;;7402108;19;20098;-73
2023/11/29 10:32:52;;;;;;;22.45;9.07;;;9.60;99.90;;;;;;7380065;19;20024;-73
2023/11/29 10:35:22;;;;;;;14.80;8.65;;;9.70;99.90;;;;;;7380771;19;20058;-73
2023/11/29 10:37:59;;;;;;;21.35;9.30;;;9.70;99.90;;;;;;7381471;19;20006;-74
2023/11/29 10:40:28;;;;;;;15.55;8.73;;;9.70;99.90;;;;;;7383151;19;20086;-73
2023/11/29 10:42:59;;;;;;;14.13;8.68;;;9.70;99.90;;;;;;7379714;19;20099;-73
2023/11/29 10:45:29;;;;;;;17.23;8.35;;;9.70;99.90;;;;;;7400441;19;20568;-73
2023/11/29 10:48:05;;;;;;;21.25;8.82;;;9.60;99.90;;;;;;7379358;19;20281;-73
2023/11/29 10:50:35;;;;;;;15.65;8.23;;;9.50;99.90;;;;;;7379389;19;20092;-73
2023/11/29 10:53:04;;;;;;;14.57;8.38;;;9.60;99.90;;;;;;7380774;19;20027;-73
2023/11/29 10:55:38;;;;;;;20.00;7.60;;;9.60;99.90;;;;;;7379832;19;20035;-73
2023/11/29 10:58:21;;;;;;;20.33;8.10;;;9.60;99.90;;;;;;7379629;19;20022;-73
2023/11/29 11:00:50;;;;;;;20.80;8.80;;;9.70;99.90;;;;;;7400997;19;20438;-73
2023/11/29 11:03:43;;;;;;;22.98;8.32;;;9.70;99.90;;;;;;7379245;19;20058;-74
2023/11/29 11:06:41;;;;;;;15.68;7.68;;;9.70;99.90;;;;;;7378065;19;20007;-72
2023/11/29 11:09:36;;;;;;;24.25;7.80;;;9.80;99.90;;;;;;7378886;19;20003;-74
2023/11/29 11:12:06;;;;;;;17.08;8.05;;;9.80;99.90;;;;;;7378878;19;20019;-73
2023/11/29 11:14:49;;;;;;;13.75;7.32;;;9.80;99.90;;;;;;7379453;19;20078;-73
2023/11/29 11:17:20;;;;;;;18.08;7.60;;;9.80;99.90;;;;;;7379225;19;20003;-74
2023/11/29 11:19:53;;;;;;;12.95;7.07;;;9.90;99.90;;;;;;7377486;19;20348;-74
2023/11/29 11:22:33;;;;;;;16.30;7.38;;;9.90;99.90;;;;;;7379607;19;20003;-74
2023/11/29 11:25:07;;;;;;;11.93;6.68;;;10.00;99.90;;;;;;7378486;19;20006;-74
2023/11/29 11:27:38;;;;;;;22.13;7.13;;;10.00;99.90;;;;;;7399786;19;20010;-73
2023/11/29 11:30:31;;;;;;;24.65;10.43;;;9.90;99.90;;;;;;7378716;19;20231;-74
2023/11/29 11:33:01;;;;;;;18.98;6.45;;;9.80;99.90;;;;;;7377952;19;20240;-73
2023/11/29 11:35:35;;;;;;;13.93;7.40;;;9.80;99.90;;;;;;7379247;19;20143;-74
2023/11/29 11:38:06;;;;;;;19.35;7.07;;;9.80;99.90;;;;;;7379253;19;20062;-74
2023/11/29 11:40:37;;;;;;;24.30;8.50;;;9.80;99.90;;;;;;7377093;19;20015;-73
2023/11/29 11:43:07;;;;;;;16.63;7.47;;;9.90;99.90;;;;;;7380708;19;20043;-73
2023/11/29 11:45:37;;;;;;;15.00;7.78;;;9.90;99.90;;;;;;7398980;19;20006;-73
2023/11/29 11:48:07;;;;;;;12.17;7.40;;;10.00;99.90;;;;;;7378091;19;20014;-73
2023/11/29 11:50:39;;;;;;;11.73;6.82;;;10.00;99.90;;;;;;7377708;19;20212;-73
2023/11/29 11:53:07;;;;;;;17.08;7.60;;;10.20;99.90;;;;;;7378019;19;20003;-73
2023/11/29 11:55:36;;;;;;;17.40;7.32;;;10.10;99.90;;;;;;7378254;19;20010;-73
2023/11/29 11:58:06;;;;;;;13.80;6.93;;;10.10;99.90;;;;;;7378072;19;20014;-73
2023/11/29 12:00:35;;;;;;;14.32;7.38;;;10.20;99.90;;;;;;7401922;19;20010;-74
2023/11/29 12:03:09;;;;;;;14.68;7.85;;;10.30;99.90;;;;;;7384945;19;20250;-73
2023/11/29 12:05:41;;;;;;;15.02;7.53;;;10.40;99.90;;;;;;7384448;19;20030;-74
2023/11/29 12:08:10;;;;;;;17.52;7.55;;;10.40;99.90;;;;;;7384470;19;20007;-74
2023/11/29 12:10:40;;;;;;;13.63;7.30;;;10.40;99.90;;;;;;7384948;19;20011;-74
2023/11/29 12:13:09;;;;;;;12.07;6.68;;;10.50;99.90;;;;;;7383188;19;20014;-73
2023/11/29 12:15:38;;;;;;;11.45;5.97;;;10.50;99.90;;;;;;7400405;19;20342;-73
2023/11/29 12:18:16;;;;;;;11.93;5.90;;;10.50;99.90;;;;;;7377025;19;20082;-74
2023/11/29 12:20:50;;;;;;;8.50;4.80;;;10.40;99.90;;;;;;7377730;19;20003;-73
2023/11/29 12:23:28;;;;;;;9.13;4.85;;;10.50;99.90;;;;;;7378204;19;20059;-73
2023/11/29 12:26:01;;;;;;;8.63;4.97;;;10.50;99.90;;;;;;7376883;19;20014;-73
2023/11/29 12:28:32;;;;;;;10.38;5.03;;;10.60;99.90;;;;;;7377905;19;20036;-72
2023/11/29 12:31:02;;;;;;;14.15;5.43;;;10.60;99.90;;;;;;7379379;19;20010;-74
2023/11/29 12:33:32;;;;;;;9.43;4.82;;;10.70;99.90;;;;;;7398457;19;20013;-74
2023/11/29 12:36:09;;;;;;;15.82;5.18;;;10.60;99.90;;;;;;7376988;19;20019;-73
2023/11/29 12:38:38;;;;;;;7.63;4.90;;;10.60;99.90;;;;;;7377125;19;20010;-73
2023/11/29 12:41:07;;;;;;;14.15;5.20;;;10.70;99.90;;;;;;7377329;19;20369;-74
2023/11/29 12:43:36;;;;;;;7.80;4.20;;;10.80;99.90;;;;;;7377158;19;20011;-73
2023/11/29 12:46:06;;;;;;;12.18;5.00;;;10.90;99.90;;;;;;7376657;19;20729;-74
2023/11/29 12:48:36;;;;;;;8.30;3.83;;;10.70;99.90;;;;;;7398825;19;20422;-74
2023/11/29 12:51:13;;;;;;;10.18;4.10;;;10.50;99.90;;;;;;7377339;19;20070;-73
2023/11/29 12:53:42;;;;;;;8.48;3.55;;;10.60;99.90;;;;;;7382120;19;20018;-74
2023/11/29 12:56:11;;;;;;;10.15;3.63;;;10.70;99.90;;;;;;7384299;19;20289;-74
2023/11/29 12:58:41;;;;;;;8.43;3.70;;;10.80;99.90;;;;;;7384492;19;20003;-73
2023/11/29 13:01:11;;;;;;;6.47;3.25;;;10.80;99.90;;;;;;7384617;19;20066;-73
2023/11/29 13:03:39;;;;;;;8.93;3.50;;;10.70;99.90;;;;;;7405496;19;20009;-73